createdAt,value
2023-01-11T00:00:55.185Z,5.14
2023-01-11T00:03:22.104Z,5.12
2023-01-11T00:05:49.259Z,5.13
2023-01-11T00:08:16.246Z,5.11
2023-01-11T00:10:43.551Z,5.09
2023-01-11T00:13:11.585Z,5.09
2023-01-11T00:15:40.327Z,5.10
2023-01-11T00:18:07.756Z,5.10
2023-01-11T00:20:35.276Z,5.12
2023-01-11T00:23:02.381Z,5.12
2023-01-11T00:25:29.618Z,5.11
2023-01-11T00:27:56.680Z,5.11
2023-01-11T00:30:24.472Z,5.15
2023-01-11T00:32:57.425Z,5.12
2023-01-11T00:35:26.817Z,5.13
2023-01-11T00:37:54.670Z,5.14
2023-01-11T00:40:24.026Z,5.17
2023-01-11T00:43:09.802Z,5.18
2023-01-11T00:45:55.930Z,5.18
2023-01-11T00:48:23.116Z,5.19
2023-01-11T00:50:57.252Z,5.19
2023-01-11T00:53:24.410Z,5.21
2023-01-11T00:55:51.722Z,5.23
2023-01-11T00:58:18.968Z,5.25
2023-01-11T01:00:46.316Z,5.27
2023-01-11T01:03:13.311Z,5.31
2023-01-11T01:05:40.636Z,5.31
2023-01-11T01:08:07.775Z,5.31
2023-01-11T01:10:35.059Z,5.31
2023-01-11T01:13:21.539Z,5.32
2023-01-11T01:15:48.782Z,5.32
2023-01-11T01:18:15.930Z,5.34
2023-01-11T01:20:43.195Z,5.32
2023-01-11T01:23:10.127Z,5.30
2023-01-11T01:25:37.998Z,5.28
2023-01-11T01:28:05.132Z,5.28
2023-01-11T01:30:33.618Z,5.29
2023-01-11T01:33:00.635Z,5.28
2023-01-11T01:35:28.361Z,5.28
2023-01-11T01:37:55.315Z,5.31
2023-01-11T01:40:22.744Z,5.27
2023-01-11T01:42:54.537Z,5.27
2023-01-11T01:45:26.177Z,5.29
2023-01-11T01:48:06.158Z,5.31
2023-01-11T01:50:40.457Z,5.29
2023-01-11T01:53:17.043Z,5.29
2023-01-11T01:55:51.951Z,5.34
2023-01-11T01:58:26.638Z,5.34
2023-01-11T02:00:54.194Z,5.37
2023-01-11T02:03:26.828Z,5.30
2023-01-11T02:05:54.682Z,5.28
2023-01-11T02:08:38.003Z,5.28
2023-01-11T02:11:27.652Z,5.28
2023-01-11T02:13:58.634Z,5.28
2023-01-11T02:16:26.759Z,5.34
2023-01-11T02:18:55.631Z,5.35
2023-01-11T02:21:39.627Z,5.35
2023-01-11T02:24:49.685Z,5.32
2023-01-11T02:27:54.843Z,5.26
2023-01-11T02:30:35.044Z,5.27
2023-01-11T02:33:49.336Z,5.28
2023-01-11T02:37:04.673Z,5.27
2023-01-11T02:40:03.367Z,5.28
2023-01-11T02:42:58.394Z,5.29
2023-01-11T02:45:47.299Z,5.29
2023-01-11T02:48:36.711Z,5.30
2023-01-11T02:51:22.542Z,5.29
2023-01-11T02:54:04.332Z,5.31
2023-01-11T02:56:40.448Z,5.32
2023-01-11T02:59:13.225Z,5.31
2023-01-11T03:01:53.221Z,5.31
2023-01-11T03:04:35.827Z,5.32
2023-01-11T03:07:40.158Z,5.32
2023-01-11T03:10:55.946Z,5.33
2023-01-11T03:14:04.595Z,5.32
2023-01-11T03:16:51.762Z,5.31
2023-01-11T03:19:41.650Z,5.30
2023-01-11T03:22:23.291Z,5.27
2023-01-11T03:25:12.948Z,5.29
2023-01-11T03:32:45.559Z,5.26
2023-01-11T03:35:38.322Z,5.29
2023-01-11T03:38:25.082Z,5.31
2023-01-11T03:41:06.632Z,5.28
2023-01-11T03:43:40.322Z,5.27
2023-01-11T03:46:16.892Z,5.28
2023-01-11T03:48:59.233Z,5.30
2023-01-11T03:51:31.576Z,5.33
2023-01-11T03:54:14.133Z,5.32
2023-01-11T03:56:56.414Z,5.33
2023-01-11T03:59:24.186Z,5.34
2023-01-11T04:01:55.146Z,5.32
2023-01-11T04:04:23.381Z,5.31
2023-01-11T04:06:50.807Z,5.32
2023-01-11T04:09:17.894Z,5.29
2023-01-11T04:11:45.726Z,5.27
2023-01-11T04:14:12.747Z,5.26
2023-01-11T04:16:40.055Z,5.27
2023-01-11T04:19:07.071Z,5.28
2023-01-11T04:21:34.219Z,5.33
2023-01-11T04:24:01.323Z,5.37
2023-01-11T04:26:28.528Z,5.38
2023-01-11T04:28:56.029Z,5.34
2023-01-11T04:31:23.511Z,5.33
2023-01-11T04:33:50.504Z,5.29
2023-01-11T04:36:18.067Z,5.29
2023-01-11T04:38:45.124Z,5.25
2023-01-11T04:41:30.901Z,5.22
2023-01-11T04:43:57.957Z,5.21
2023-01-11T04:46:25.471Z,5.20
2023-01-11T04:48:52.906Z,5.20
2023-01-11T04:51:20.435Z,5.21
2023-01-11T04:53:51.783Z,5.20
2023-01-11T04:56:19.583Z,5.20
2023-01-11T04:58:46.789Z,5.19
2023-01-11T05:01:19.377Z,5.19
2023-01-11T05:03:47.308Z,5.20
2023-01-11T05:06:15.629Z,5.21
2023-01-11T05:08:47.599Z,5.21
2023-01-11T05:11:17.430Z,5.19
2023-01-11T05:13:45.150Z,5.18
2023-01-11T05:16:21.137Z,5.19
2023-01-11T05:18:54.882Z,5.20
2023-01-11T05:21:26.772Z,5.20
2023-01-11T05:23:54.894Z,5.19
2023-01-11T05:26:27.220Z,5.20
2023-01-11T05:28:57.464Z,5.18
2023-01-11T05:31:25.517Z,5.18
2023-01-11T05:33:53.333Z,5.19
2023-01-11T05:36:23.058Z,5.18
2023-01-11T05:38:52.635Z,5.18
2023-01-11T05:41:23.391Z,5.20
2023-01-11T05:44:12.079Z,5.21
2023-01-11T05:46:42.729Z,5.19
2023-01-11T05:49:12.156Z,5.18
2023-01-11T05:51:41.036Z,5.18
2023-01-11T05:54:12.871Z,5.17
2023-01-11T05:56:42.505Z,5.16
2023-01-11T05:59:09.834Z,5.15
2023-01-11T06:01:37.936Z,5.14
2023-01-11T06:04:05.184Z,5.12
2023-01-11T06:06:33.552Z,5.13
2023-01-11T06:09:00.779Z,5.12
2023-01-11T06:11:28.425Z,5.13
2023-01-11T06:13:55.514Z,5.13
2023-01-11T06:16:23.809Z,5.13
2023-01-11T06:18:53.099Z,5.12
2023-01-11T06:21:21.645Z,5.12
2023-01-11T06:23:53.188Z,5.10
2023-01-11T06:26:23.155Z,5.10
2023-01-11T06:28:51.691Z,5.09
2023-01-11T06:31:19.719Z,5.09
2023-01-11T06:33:47.550Z,5.10
2023-01-11T06:36:16.180Z,5.09
2023-01-11T06:38:44.339Z,5.07
2023-01-11T06:41:13.268Z,5.06
2023-01-11T06:43:42.058Z,5.06
2023-01-11T06:46:15.577Z,5.08
2023-01-11T06:48:43.717Z,5.06
2023-01-11T06:51:12.088Z,5.07
2023-01-11T06:53:41.158Z,5.06
2023-01-11T06:56:13.132Z,5.06
2023-01-11T06:58:40.583Z,5.06
2023-01-11T07:01:08.232Z,5.06
2023-01-11T07:03:35.366Z,5.05
2023-01-11T07:06:04.299Z,5.07
2023-01-11T07:08:31.342Z,5.04
2023-01-11T07:10:58.643Z,5.05
2023-01-11T07:13:25.593Z,5.08
2023-01-11T07:15:57.246Z,5.07
2023-01-11T07:18:24.273Z,5.06
2023-01-11T07:20:52.058Z,5.07
2023-01-11T07:23:19.356Z,5.08
2023-01-11T07:25:49.870Z,5.10
2023-01-11T07:28:17.184Z,5.11
2023-01-11T07:30:57.346Z,5.11
2023-01-11T07:33:26.442Z,5.10
2023-01-11T07:35:54.535Z,5.12
2023-01-11T07:38:22.601Z,5.11
2023-01-11T07:40:49.898Z,5.10
2023-01-11T07:43:23.679Z,5.12
2023-01-11T07:45:52.876Z,5.13
2023-01-11T07:48:26.300Z,5.15
2023-01-11T07:50:55.212Z,5.16
2023-01-11T07:53:25.504Z,5.19
2023-01-11T07:55:55.820Z,5.19
2023-01-11T07:58:23.220Z,5.20
2023-01-11T08:00:50.663Z,5.22
2023-01-11T08:03:18.034Z,5.28
2023-01-11T08:05:51.276Z,5.34
2023-01-11T08:08:18.560Z,5.36
2023-01-11T08:10:45.815Z,5.42
2023-01-11T08:13:33.224Z,5.44
2023-01-11T08:16:02.499Z,5.49
2023-01-11T08:18:29.444Z,5.51
2023-01-11T08:20:56.701Z,5.53
2023-01-11T08:23:23.864Z,5.58
2023-01-11T08:25:57.220Z,5.61
2023-01-11T08:28:24.179Z,5.65
2023-01-11T08:30:51.470Z,5.72
2023-01-11T08:33:19.067Z,5.82
2023-01-11T08:35:46.252Z,5.90
2023-01-11T08:38:13.358Z,5.91
2023-01-11T08:40:40.565Z,6.02
2023-01-11T08:43:07.504Z,6.06
2023-01-11T08:45:34.681Z,6.12
2023-01-11T08:48:02.042Z,6.19
2023-01-11T08:50:29.373Z,6.25
2023-01-11T08:52:56.392Z,6.30
2023-01-11T08:55:23.631Z,6.38
2023-01-11T08:57:50.781Z,6.47
2023-01-11T09:00:19.153Z,6.49
2023-01-11T09:02:46.221Z,6.54
2023-01-11T09:05:13.618Z,6.58
2023-01-11T09:07:40.720Z,6.69
2023-01-11T09:10:08.971Z,6.84
2023-01-11T09:12:36.018Z,6.93
2023-01-11T09:15:05.828Z,7.01
2023-01-11T09:17:34.137Z,7.04
2023-01-11T09:20:01.383Z,7.19
2023-01-11T09:22:28.499Z,7.30
2023-01-11T09:24:58.833Z,7.43
2023-01-11T09:27:26.386Z,7.45
2023-01-11T09:29:53.630Z,7.44
2023-01-11T09:32:20.701Z,7.44
2023-01-11T09:34:49.617Z,7.52
2023-01-11T09:37:17.154Z,7.65
2023-01-11T09:39:44.719Z,7.80
2023-01-11T09:42:36.531Z,7.95
2023-01-11T09:45:20.256Z,8.11
2023-01-11T09:48:03.605Z,8.29
2023-01-11T09:50:41.829Z,8.37
2023-01-11T09:53:28.026Z,8.44
2023-01-11T09:55:58.508Z,8.57
2023-01-11T09:58:54.404Z,8.66
2023-01-11T10:01:38.722Z,8.71
2023-01-11T10:05:18.524Z,8.83
2023-01-11T10:18:27.917Z,8.97
2023-01-11T10:18:39.107Z,9.07
2023-01-11T10:20:55.083Z,9.14
2023-01-11T10:23:33.192Z,9.21
2023-01-11T10:26:07.109Z,9.24
2023-01-11T10:28:43.205Z,9.26
2023-01-11T10:31:45.242Z,9.25
2023-01-11T10:34:38.849Z,9.26
2023-01-11T10:37:46.728Z,9.30
2023-01-11T10:40:39.104Z,9.33
2023-01-11T10:43:20.174Z,9.40
2023-01-11T10:45:57.955Z,9.42
2023-01-11T10:48:38.613Z,9.45
2023-01-11T10:51:49.080Z,9.43
2023-01-11T10:54:24.451Z,9.46
2023-01-11T10:57:35.563Z,9.47
2023-01-11T11:00:23.778Z,9.48
2023-01-11T11:02:56.638Z,9.49
2023-01-11T11:05:55.624Z,9.50
2023-01-11T11:08:41.825Z,9.53
2023-01-11T11:11:36.853Z,9.58
2023-01-11T11:14:35.188Z,9.58
2023-01-11T11:17:36.743Z,9.59
2023-01-11T11:20:22.446Z,9.61
2023-01-11T11:22:56.232Z,9.58
2023-01-11T11:25:32.512Z,9.57
2023-01-11T11:28:25.728Z,9.57
2023-01-11T11:30:55.531Z,9.60
2023-01-11T11:33:46.319Z,9.55
2023-01-11T11:36:14.776Z,9.60
2023-01-11T11:39:18.854Z,9.68
2023-01-11T11:41:54.420Z,9.70
2023-01-11T11:44:26.524Z,9.76
2023-01-11T11:47:14.917Z,9.84
2023-01-11T11:49:43.148Z,9.92
2023-01-11T11:52:17.518Z,9.98
2023-01-11T11:54:59.237Z,10.05
2023-01-11T11:57:41.697Z,10.08
2023-01-11T12:00:34.904Z,10.10
2023-01-11T12:03:32.162Z,10.10
2023-01-11T12:06:03.798Z,10.11
2023-01-11T12:08:35.002Z,10.11
2023-01-11T12:11:08.172Z,10.11
2023-01-11T12:13:38.943Z,10.11
2023-01-11T12:16:22.854Z,10.07
2023-01-11T12:18:49.912Z,10.11
2023-01-11T12:21:21.816Z,10.14
2023-01-11T12:24:19.416Z,10.13
2023-01-11T12:27:11.942Z,10.12
2023-01-11T12:30:05.085Z,10.20
2023-01-11T12:32:53.912Z,10.34
2023-01-11T12:35:28.020Z,10.35
2023-01-11T12:38:43.576Z,10.29
2023-01-11T12:41:48.236Z,10.27
2023-01-11T12:45:01.675Z,10.31
2023-01-11T12:47:58.921Z,10.36
2023-01-11T12:50:56.766Z,10.41
2023-01-11T12:53:37.549Z,10.41
2023-01-11T12:56:26.051Z,10.45
2023-01-11T12:59:06.867Z,10.45
2023-01-11T13:02:03.044Z,10.49
2023-01-11T13:04:56.624Z,10.44
2023-01-11T13:07:43.274Z,10.44
2023-01-11T13:10:29.851Z,10.38
2023-01-11T13:13:21.852Z,10.41
2023-01-11T13:16:09.526Z,10.43
2023-01-11T13:19:15.656Z,10.39
2023-01-11T13:21:53.311Z,10.39
2023-01-11T13:24:31.214Z,10.42
2023-01-11T13:27:14.014Z,10.41
2023-01-11T13:29:47.195Z,10.40
2023-01-11T13:32:23.395Z,10.31
2023-01-11T13:35:27.581Z,10.25
2023-01-11T13:38:08.326Z,10.14
2023-01-11T13:40:49.718Z,10.11
2023-01-11T13:43:46.431Z,10.07
2023-01-11T13:46:40.355Z,9.99
2023-01-11T13:49:44.699Z,9.96
2023-01-11T13:52:24.802Z,9.80
2023-01-11T13:55:26.433Z,9.78
2023-01-11T13:58:07.258Z,9.80
2023-01-11T14:01:10.709Z,9.85
2023-01-11T14:03:56.633Z,9.85
2023-01-11T14:06:31.730Z,9.81
2023-01-11T14:09:27.960Z,9.80
2023-01-11T14:12:35.688Z,9.78
2023-01-11T14:15:28.677Z,9.76
2023-01-11T14:18:09.242Z,9.74
2023-01-11T14:21:13.099Z,9.71
2023-01-11T14:23:51.404Z,9.63
2023-01-11T14:26:43.636Z,9.57
2023-01-11T14:30:04.528Z,9.50
2023-01-11T14:33:01.946Z,9.45
2023-01-11T14:36:15.355Z,9.40
2023-01-11T14:39:20.784Z,9.35
2023-01-11T14:42:45.633Z,9.28
2023-01-11T14:45:52.019Z,9.20
2023-01-11T14:48:48.280Z,9.15
2023-01-11T14:51:32.556Z,9.09
2023-01-11T14:54:23.203Z,9.01
2023-01-11T14:56:57.735Z,8.95
2023-01-11T14:59:31.259Z,8.89
2023-01-11T15:02:04.512Z,8.88
2023-01-11T15:04:59.195Z,8.80
2023-01-11T15:07:29.633Z,8.75
2023-01-11T15:09:59.444Z,8.72
2023-01-11T15:12:39.324Z,8.65
2023-01-11T15:15:21.113Z,8.57
2023-01-11T15:18:15.835Z,8.48
2023-01-11T15:21:03.609Z,8.38
2023-01-11T15:23:48.426Z,8.32
2023-01-11T15:26:19.196Z,8.27
2023-01-11T15:29:00.188Z,8.18
2023-01-11T15:32:01.364Z,8.12
2023-01-11T15:34:31.722Z,8.05
2023-01-11T15:37:02.297Z,7.96
2023-01-11T15:39:58.886Z,7.86
2023-01-11T15:42:59.023Z,7.78
2023-01-11T15:46:06.639Z,7.66
2023-01-11T15:48:57.551Z,7.64
2023-01-11T15:51:45.950Z,7.56
2023-01-11T15:54:28.005Z,7.51
2023-01-11T15:57:22.668Z,7.47
2023-01-11T16:00:34.083Z,7.41
2023-01-11T16:03:30.054Z,7.34
2023-01-11T16:06:27.900Z,7.29
2023-01-11T16:09:07.229Z,7.24
2023-01-11T16:12:00.513Z,7.17
2023-01-11T16:14:57.575Z,7.14
2023-01-11T16:17:26.363Z,7.12
2023-01-11T16:19:56.621Z,7.06
2023-01-11T16:22:28.135Z,7.00
2023-01-11T16:25:01.788Z,6.93
2023-01-11T16:27:34.838Z,6.86
2023-01-11T16:30:02.874Z,6.84
2023-01-11T16:32:34.583Z,6.83
2023-01-11T16:35:17.304Z,6.70
2023-01-11T16:37:50.207Z,6.64
2023-01-11T16:40:42.960Z,6.62
2023-01-11T16:43:24.388Z,6.55
2023-01-11T16:45:54.500Z,6.51
2023-01-11T16:48:28.450Z,6.48
2023-01-11T16:51:16.572Z,6.44
2023-01-11T16:53:55.405Z,6.42
2023-01-11T16:56:24.473Z,6.39
2023-01-11T16:59:27.168Z,6.32
2023-01-11T17:02:04.450Z,6.26
2023-01-11T17:04:38.222Z,6.20
2023-01-11T17:07:20.209Z,6.16
2023-01-11T17:09:47.462Z,6.12
2023-01-11T17:12:24.134Z,6.09
2023-01-11T17:15:09.363Z,6.02
2023-01-11T17:17:37.953Z,6.01
2023-01-11T17:20:20.692Z,5.97
2023-01-11T17:22:53.816Z,5.90
2023-01-11T17:25:37.270Z,5.86
2023-01-11T17:28:19.684Z,5.80
2023-01-11T17:30:51.231Z,5.75
2023-01-11T17:33:29.246Z,5.73
2023-01-11T17:35:57.397Z,5.66
2023-01-11T17:38:27.268Z,5.63
2023-01-11T17:40:58.572Z,5.59
2023-01-11T17:43:47.673Z,5.55
2023-01-11T17:46:20.459Z,5.50
2023-01-11T17:48:59.786Z,5.44
2023-01-11T17:51:31.398Z,5.43
2023-01-11T17:53:58.851Z,5.39
2023-01-11T17:56:54.454Z,5.35
2023-01-11T17:59:24.297Z,5.28
2023-01-11T18:01:57.620Z,5.27
2023-01-11T18:04:27.258Z,5.24
2023-01-11T18:07:04.622Z,5.20
2023-01-11T18:09:36.212Z,5.14
2023-01-11T18:12:25.927Z,5.10
2023-01-11T18:15:03.604Z,5.09
2023-01-11T18:17:42.014Z,5.06
2023-01-11T18:20:15.244Z,5.01
2023-01-11T18:22:59.642Z,4.97
2023-01-11T18:25:30.841Z,4.94
2023-01-11T18:28:30.032Z,4.91
2023-01-11T18:31:01.701Z,4.88
2023-01-11T18:33:33.321Z,4.83
2023-01-11T18:36:04.021Z,4.81
2023-01-11T18:38:34.787Z,4.80
2023-01-11T18:41:28.100Z,4.76
2023-01-11T18:43:55.599Z,4.70
2023-01-11T18:46:23.083Z,4.67
2023-01-11T18:48:50.267Z,4.63
2023-01-11T18:51:33.635Z,4.62
2023-01-11T18:54:00.670Z,4.63
2023-01-11T18:56:28.461Z,4.62
2023-01-11T18:58:55.438Z,4.60
2023-01-11T19:01:22.729Z,4.52
2023-01-11T19:03:50.704Z,4.49
2023-01-11T19:06:20.939Z,4.45
2023-01-11T19:08:48.034Z,4.40
2023-01-11T19:11:16.729Z,4.42
2023-01-11T19:13:46.617Z,4.43
2023-01-11T19:16:15.070Z,4.46
2023-01-11T19:18:42.031Z,4.41
2023-01-11T19:21:13.166Z,4.37
2023-01-11T19:23:41.283Z,4.36
2023-01-11T19:26:08.519Z,4.29
2023-01-11T19:28:37.027Z,4.29
2023-01-11T19:31:11.296Z,4.29
2023-01-11T19:33:40.166Z,4.27
2023-01-11T19:36:09.250Z,4.27
2023-01-11T19:38:37.129Z,4.24
2023-01-11T19:41:08.108Z,4.27
2023-01-11T19:43:36.206Z,4.28
2023-01-11T19:46:03.959Z,4.27
2023-01-11T19:48:34.482Z,4.25
2023-01-11T19:51:11.502Z,4.19
2023-01-11T19:53:38.564Z,4.20
2023-01-11T19:56:08.767Z,4.21
2023-01-11T19:58:38.930Z,4.22
2023-01-11T20:01:11.954Z,4.20
2023-01-11T20:03:45.378Z,4.22
2023-01-11T20:06:12.734Z,4.19
2023-01-11T20:08:41.134Z,4.10
2023-01-11T20:11:15.145Z,4.07
2023-01-11T20:13:43.111Z,4.06
2023-01-11T20:16:13.453Z,4.04
2023-01-11T20:18:42.899Z,4.03
2023-01-11T20:21:11.482Z,4.05
2023-01-11T20:23:38.577Z,4.09
2023-01-11T20:26:07.816Z,4.05
2023-01-11T20:28:35.137Z,4.03
2023-01-11T20:31:06.813Z,4.01
2023-01-11T20:33:34.598Z,4.00
2023-01-11T20:36:18.048Z,3.98
2023-01-11T20:38:46.218Z,3.95
2023-01-11T20:41:36.138Z,3.95
2023-01-11T20:44:04.310Z,3.93
2023-01-11T20:46:32.201Z,3.91
2023-01-11T20:49:00.264Z,3.92
2023-01-11T20:51:27.526Z,3.92
2023-01-11T20:53:54.469Z,3.92
2023-01-11T20:56:21.997Z,3.87
2023-01-11T20:58:51.312Z,3.88
2023-01-11T21:01:26.802Z,3.84
2023-01-11T21:03:57.385Z,3.85
2023-01-11T21:06:24.660Z,3.87
2023-01-11T21:08:56.843Z,3.88
2023-01-11T21:11:24.844Z,3.85
2023-01-11T21:16:25.308Z,3.86
2023-01-11T21:18:57.369Z,3.81
2023-01-11T21:21:29.064Z,3.81
2023-01-11T21:23:59.152Z,3.82
2023-01-11T21:26:28.236Z,3.77
2023-01-11T21:29:02.332Z,3.78
2023-01-11T21:31:33.617Z,3.77
2023-01-11T21:34:03.330Z,3.71
2023-01-11T21:36:32.015Z,3.70
2023-01-11T21:39:00.560Z,3.68
2023-01-11T21:41:49.609Z,3.66
2023-01-11T21:44:18.992Z,3.68
2023-01-11T21:46:46.809Z,3.72
2023-01-11T21:49:14.801Z,3.72
2023-01-11T21:51:42.853Z,3.70
2023-01-11T21:54:13.165Z,3.71
2023-01-11T21:56:43.861Z,3.72
2023-01-11T21:59:11.776Z,3.77
2023-01-11T22:01:42.616Z,3.76
2023-01-11T22:04:14.276Z,3.75
2023-01-11T22:06:47.264Z,3.70
2023-01-11T22:09:14.517Z,3.69
2023-01-11T22:11:41.662Z,3.66
2023-01-11T22:14:09.342Z,3.65
2023-01-11T22:16:37.304Z,3.66
2023-01-11T22:19:07.356Z,3.70
2023-01-11T22:21:35.993Z,3.69
2023-01-11T22:24:05.025Z,3.67
2023-01-11T22:26:38.532Z,3.66
2023-01-11T22:29:12.630Z,3.64
2023-01-11T22:31:45.494Z,3.64
2023-01-11T22:34:14.281Z,3.63
2023-01-11T22:36:42.743Z,3.63
2023-01-11T22:39:11.133Z,3.64
2023-01-11T22:41:40.505Z,3.63
2023-01-11T22:44:09.218Z,3.62
2023-01-11T22:46:36.991Z,3.65
2023-01-11T22:49:06.191Z,3.63
2023-01-11T22:51:33.741Z,3.64
2023-01-11T22:54:00.706Z,3.63
2023-01-11T22:56:29.367Z,3.63
2023-01-11T22:58:58.058Z,3.60
2023-01-11T23:01:32.884Z,3.59
2023-01-11T23:04:00.749Z,3.58
2023-01-11T23:06:46.360Z,3.55
2023-01-11T23:09:16.553Z,3.50
2023-01-11T23:12:03.897Z,3.44
2023-01-11T23:14:32.757Z,3.43
2023-01-11T23:17:06.928Z,3.42
2023-01-11T23:19:40.329Z,3.43
2023-01-11T23:22:09.691Z,3.43
2023-01-11T23:24:37.784Z,3.45
2023-01-11T23:27:05.792Z,3.48
2023-01-11T23:29:33.294Z,3.46
2023-01-11T23:32:00.663Z,3.50
2023-01-11T23:34:28.082Z,3.50
2023-01-11T23:36:56.159Z,3.50
2023-01-11T23:39:23.719Z,3.56
2023-01-11T23:42:09.898Z,3.52
2023-01-11T23:44:36.947Z,3.51
2023-01-11T23:47:22.556Z,3.51
2023-01-11T23:49:52.852Z,3.51
2023-01-11T23:52:24.546Z,3.51
2023-01-11T23:54:52.092Z,3.51
2023-01-11T23:57:21.202Z,3.54
2023-01-11T23:59:48.290Z,3.56
